Time;durP1;ratioP1;P1;durP2;ratioP2;P2;SDS_P1;SDS_P2;PMS_P1;PMS_P2;Temp;Humidity;BMP_temperature;BMP_pressure;BME280_temperature;BME280_humidity;BME280_pressure;Samples;Min_cycle;Max_cycle;Signal;HPM_P1;HPM_P2
2023/05/12 00:00:16;;;;;;;1.90;0.43;;;14.90;82.10;;;;;;7395872;19;20267;-72
2023/05/12 00:02:43;;;;;;;2.65;0.95;;;14.90;82.00;;;;;;7375715;19;20362;-72
2023/05/12 00:05:09;;;;;;;2.67;0.80;;;14.80;82.00;;;;;;7396463;19;19911;-72
2023/05/12 00:07:35;;;;;;;1.50;0.65;;;14.80;82.10;;;;;;7401349;19;19923;-72
2023/05/12 00:10:01;;;;;;;2.28;0.77;;;14.90;82.00;;;;;;7403833;19;19950;-72
2023/05/12 00:12:27;;;;;;;2.03;0.70;;;14.90;81.90;;;;;;7405344;19;19919;-72
2023/05/12 00:14:52;;;;;;;2.03;0.60;;;14.80;81.60;;;;;;7400814;19;19927;-72
2023/05/12 00:17:18;;;;;;;2.22;0.70;;;14.80;81.70;;;;;;7403737;19;19915;-71
2023/05/12 00:19:44;;;;;;;1.35;0.47;;;14.80;81.80;;;;;;7405404;19;19915;-72
2023/05/12 00:22:10;;;;;;;1.48;0.60;;;14.80;81.60;;;;;;7402951;19;19922;-72
2023/05/12 00:24:36;;;;;;;1.60;0.60;;;14.80;81.70;;;;;;7404514;19;19922;-72
2023/05/12 00:27:02;;;;;;;2.42;0.65;;;14.90;81.70;;;;;;7401749;19;19931;-70
2023/05/12 00:29:28;;;;;;;2.92;0.60;;;14.90;81.40;;;;;;7403988;19;20255;-72
2023/05/12 00:31:55;;;;;;;3.30;0.75;;;15.00;81.00;;;;;;7403512;19;20343;-72
2023/05/12 00:34:20;;;;;;;2.90;1.00;;;15.00;80.80;;;;;;7401425;19;19940;-73
2023/05/12 00:36:46;;;;;;;3.72;0.75;;;15.00;80.70;;;;;;7403474;19;19917;-71
2023/05/12 00:39:12;;;;;;;1.75;0.90;;;15.00;80.70;;;;;;7401459;19;19925;-72
2023/05/12 00:41:38;;;;;;;1.85;0.90;;;15.10;80.70;;;;;;7403564;19;19945;-72
2023/05/12 00:44:05;;;;;;;3.17;0.93;;;15.10;79.70;;;;;;7402348;19;19918;-72
2023/05/12 00:46:31;;;;;;;3.03;0.77;;;15.10;79.70;;;;;;7402186;19;19918;-73
2023/05/12 00:48:57;;;;;;;1.85;0.65;;;15.10;79.70;;;;;;7404406;19;19922;-73
2023/05/12 00:51:25;;;;;;;2.90;0.80;;;15.10;79.50;;;;;;7404134;19;19926;-72
2023/05/12 00:53:51;;;;;;;2.65;1.00;;;15.20;79.60;;;;;;7404840;19;19914;-72
2023/05/12 00:56:20;;;;;;;2.88;0.57;;;15.10;79.40;;;;;;7398216;19;20312;-72
2023/05/12 00:58:46;;;;;;;2.50;1.05;;;15.10;79.40;;;;;;7403785;19;19915;-72
2023/05/12 01:01:12;;;;;;;2.90;0.73;;;15.10;79.40;;;;;;7401704;19;19926;-72
2023/05/12 01:03:38;;;;;;;2.20;0.80;;;15.10;79.50;;;;;;7404267;19;19922;-74
2023/05/12 01:06:16;;;;;;;4.18;0.80;;;15.00;79.70;;;;;;7402072;19;19946;-72
2023/05/12 01:08:42;;;;;;;3.75;1.10;;;15.00;79.70;;;;;;7399178;19;19948;-72
2023/05/12 01:11:08;;;;;;;3.25;1.00;;;15.00;79.90;;;;;;7400371;19;20342;-73
2023/05/12 01:13:35;;;;;;;2.28;0.68;;;15.00;80.00;;;;;;7402423;19;19919;-72
2023/05/12 01:16:03;;;;;;;2.75;0.60;;;15.00;80.00;;;;;;7401297;19;19956;-72
2023/05/12 01:18:30;;;;;;;2.47;0.90;;;15.00;80.10;;;;;;7399441;19;20744;-72
2023/05/12 01:20:56;;;;;;;2.17;0.80;;;15.00;80.10;;;;;;7401233;19;19917;-72
2023/05/12 01:23:29;;;;;;;3.38;1.02;;;15.00;80.30;;;;;;7401504;19;20006;-72
2023/05/12 01:26:06;;;;;;;4.47;1.38;;;15.00;80.50;;;;;;7403248;19;20401;-72
2023/05/12 01:28:33;;;;;;;2.08;0.90;;;15.00;80.50;;;;;;7400281;19;19919;-72
2023/05/12 01:31:00;;;;;;;2.67;0.73;;;15.00;80.50;;;;;;7400747;19;19928;-71
2023/05/12 01:33:25;;;;;;;2.42;0.85;;;15.00;80.50;;;;;;7401518;19;19930;-72
2023/05/12 01:35:51;;;;;;;3.03;1.05;;;15.00;80.40;;;;;;7400815;19;19933;-72
2023/05/12 01:38:17;;;;;;;2.65;0.52;;;15.00;80.60;;;;;;7400771;19;19939;-73
2023/05/12 01:40:43;;;;;;;3.83;0.88;;;15.00;80.50;;;;;;7402239;19;19929;-72
2023/05/12 01:43:09;;;;;;;3.40;0.93;;;15.00;80.70;;;;;;7400842;19;19921;-71
2023/05/12 01:45:35;;;;;;;2.90;0.93;;;15.00;80.80;;;;;;7401938;19;19944;-72
2023/05/12 01:48:01;;;;;;;3.45;1.13;;;14.90;81.00;;;;;;7401855;19;19954;-73
2023/05/12 01:50:27;;;;;;;4.07;0.93;;;14.90;81.90;;;;;;7401387;19;19926;-72
2023/05/12 01:52:52;;;;;;;2.05;0.77;;;14.90;81.50;;;;;;7401740;19;19926;-71
2023/05/12 01:55:18;;;;;;;2.17;0.90;;;14.90;81.80;;;;;;7399579;19;19932;-72
2023/05/12 01:57:44;;;;;;;3.10;1.10;;;14.90;81.90;;;;;;7402002;19;19918;-72
2023/05/12 02:00:12;;;;;;;3.10;0.80;;;14.90;82.10;;;;;;7399862;19;19922;-71
2023/05/12 02:02:38;;;;;;;3.25;1.08;;;14.90;82.50;;;;;;7400005;19;19930;-71
2023/05/12 02:05:04;;;;;;;3.00;0.63;;;14.90;82.80;;;;;;7397395;19;19949;-72
2023/05/12 02:07:29;;;;;;;1.63;0.60;;;14.90;83.20;;;;;;7401464;19;19919;-72
2023/05/12 02:09:55;;;;;;;3.38;0.73;;;14.80;83.60;;;;;;7399714;19;19925;-72
2023/05/12 02:12:21;;;;;;;1.80;0.75;;;14.90;83.90;;;;;;7398558;19;20444;-72
2023/05/12 02:14:47;;;;;;;3.60;1.10;;;14.90;84.20;;;;;;7402357;19;19922;-72
2023/05/12 02:17:13;;;;;;;2.03;0.80;;;14.80;84.50;;;;;;7399775;19;19929;-71
2023/05/12 02:19:38;;;;;;;2.00;0.70;;;14.80;84.80;;;;;;7399567;19;19957;-71
2023/05/12 02:22:04;;;;;;;1.92;0.70;;;14.80;86.10;;;;;;7399353;19;19942;-72
2023/05/12 02:24:30;;;;;;;2.30;0.73;;;14.70;86.50;;;;;;7399848;19;19922;-71
2023/05/12 02:26:55;;;;;;;3.50;0.82;;;14.60;87.00;;;;;;7400279;19;20335;-72
2023/05/12 02:29:21;;;;;;;2.10;0.63;;;14.50;87.60;;;;;;7395514;19;19989;-72
2023/05/12 02:31:47;;;;;;;2.33;1.13;;;14.40;87.50;;;;;;7397200;19;19949;-71
2023/05/12 02:34:13;;;;;;;2.70;0.80;;;14.40;87.90;;;;;;7395582;19;19914;-72
2023/05/12 02:36:39;;;;;;;2.58;0.68;;;14.30;88.70;;;;;;7399485;19;19925;-71
2023/05/12 02:39:05;;;;;;;1.92;0.77;;;14.20;89.20;;;;;;7398116;19;19940;-71
2023/05/12 02:41:30;;;;;;;3.65;0.60;;;14.20;89.90;;;;;;7399615;19;19938;-71
2023/05/12 02:43:56;;;;;;;2.50;0.75;;;14.20;90.20;;;;;;7399628;19;19911;-72
2023/05/12 02:46:22;;;;;;;2.22;0.75;;;14.20;90.30;;;;;;7398074;19;19980;-72
2023/05/12 02:48:48;;;;;;;1.73;0.70;;;14.20;90.40;;;;;;7369024;19;19919;-72
2023/05/12 02:51:13;;;;;;;1.25;0.35;;;14.20;90.40;;;;;;7398355;19;20255;-73
2023/05/12 02:53:39;;;;;;;1.20;0.68;;;14.20;90.50;;;;;;7397705;19;19921;-70
2023/05/12 02:56:06;;;;;;;2.58;0.47;;;14.20;90.50;;;;;;7396780;19;20284;-71
2023/05/12 02:58:32;;;;;;;;;;;14.20;90.40;;;;;;7400093;19;20242;-72
2023/05/12 03:00:58;;;;;;;2.58;0.70;;;14.20;90.40;;;;;;7400807;19;19914;-72
2023/05/12 03:03:24;;;;;;;1.85;0.73;;;14.30;90.10;;;;;;7374329;19;20482;-72
2023/05/12 03:05:51;;;;;;;2.15;0.50;;;14.30;90.00;;;;;;7398597;19;20339;-72
2023/05/12 03:08:17;;;;;;;4.03;0.68;;;14.40;89.60;;;;;;7398413;19;19918;-71
2023/05/12 03:10:42;;;;;;;1.88;0.50;;;14.50;89.10;;;;;;7400768;19;20011;-72
2023/05/12 03:13:08;;;;;;;3.58;0.68;;;14.50;88.70;;;;;;7396697;19;19939;-71
2023/05/12 03:15:35;;;;;;;2.60;0.70;;;14.50;88.30;;;;;;7399747;19;20091;-71
2023/05/12 03:18:01;;;;;;;3.28;1.13;;;14.60;88.20;;;;;;7398530;19;20363;-71
2023/05/12 03:20:28;;;;;;;2.65;0.88;;;14.60;88.00;;;;;;7396760;19;19967;-72
2023/05/12 03:22:54;;;;;;;1.48;0.50;;;14.70;87.90;;;;;;7396096;19;19915;-71
2023/05/12 03:25:20;;;;;;;2.47;0.63;;;14.60;87.90;;;;;;7396418;19;20410;-71
2023/05/12 03:27:46;;;;;;;1.98;0.88;;;14.60;87.70;;;;;;7396622;19;19918;-71
2023/05/12 03:30:12;;;;;;;2.33;0.40;;;14.60;87.70;;;;;;7396986;19;19942;-72
2023/05/12 03:32:38;;;;;;;2.35;1.15;;;14.60;87.30;;;;;;7396171;19;19914;-72
2023/05/12 03:35:05;;;;;;;3.80;0.80;;;14.70;86.60;;;;;;7366381;19;19911;-72
2023/05/12 03:37:33;;;;;;;2.13;0.63;;;14.70;86.40;;;;;;7395894;19;19930;-71
2023/05/12 03:39:58;;;;;;;2.85;0.43;;;14.70;86.10;;;;;;7366485;19;20006;-72
2023/05/12 03:42:24;;;;;;;2.63;0.50;;;14.70;86.10;;;;;;7397715;19;19922;-71
2023/05/12 03:44:51;;;;;;;2.63;0.55;;;14.70;86.80;;;;;;7371335;19;19927;-72
2023/05/12 03:47:16;;;;;;;2.58;1.10;;;14.60;86.50;;;;;;7401888;19;19926;-72
2023/05/12 03:49:42;;;;;;;2.30;0.60;;;14.60;86.70;;;;;;7404768;19;19922;-71
2023/05/12 03:52:08;;;;;;;2.55;0.60;;;14.60;86.90;;;;;;7402554;19;20268;-72
2023/05/12 03:54:34;;;;;;;1.35;0.30;;;14.60;87.10;;;;;;7406499;19;20323;-73
2023/05/12 03:57:00;;;;;;;2.22;0.47;;;14.70;87.20;;;;;;7403670;19;20325;-73
2023/05/12 03:59:29;;;;;;;3.40;1.20;;;14.70;87.10;;;;;;7402754;19;19934;-72
2023/05/12 04:01:55;;;;;;;2.33;0.57;;;14.70;87.20;;;;;;7404411;19;20335;-71
2023/05/12 04:04:22;;;;;;;2.20;0.60;;;14.60;87.40;;;;;;7403619;19;19925;-74
2023/05/12 04:06:48;;;;;;;2.15;0.80;;;14.60;87.60;;;;;;7402761;19;19978;-72
2023/05/12 04:09:15;;;;;;;3.38;0.82;;;14.60;87.70;;;;;;7403073;19;19911;-71
2023/05/12 04:11:42;;;;;;;2.15;0.70;;;14.60;88.00;;;;;;7403134;19;19918;-72
2023/05/12 04:14:07;;;;;;;2.83;0.70;;;14.50;88.10;;;;;;7402093;19;19930;-73
2023/05/12 04:16:34;;;;;;;2.35;0.80;;;14.50;88.30;;;;;;7400964;19;19922;-71
2023/05/12 04:19:00;;;;;;;2.53;0.60;;;14.50;88.30;;;;;;7405310;19;20535;-72
2023/05/12 04:21:26;;;;;;;2.30;0.90;;;14.50;88.40;;;;;;7400485;19;19922;-72
2023/05/12 04:23:52;;;;;;;3.58;0.88;;;14.50;88.30;;;;;;7402377;19;19918;-73
2023/05/12 04:26:18;;;;;;;2.25;0.57;;;14.40;88.40;;;;;;7401052;19;19925;-71
2023/05/12 04:28:44;;;;;;;2.28;0.63;;;14.40;88.50;;;;;;7408532;19;19926;-72
2023/05/12 04:31:09;;;;;;;2.78;0.80;;;14.40;88.70;;;;;;7380600;19;19939;-73
2023/05/12 04:33:35;;;;;;;4.00;0.75;;;14.40;88.70;;;;;;7403799;19;19930;-72
2023/05/12 04:36:04;;;;;;;3.35;0.80;;;14.40;88.80;;;;;;7400817;19;19914;-74
2023/05/12 04:38:30;;;;;;;3.35;1.00;;;14.30;89.10;;;;;;7399106;19;20335;-71
2023/05/12 04:40:59;;;;;;;3.15;0.90;;;14.30;89.50;;;;;;7401845;19;19938;-73
2023/05/12 04:43:26;;;;;;;2.95;0.98;;;14.20;89.60;;;;;;7398566;19;19926;-72
2023/05/12 04:45:54;;;;;;;2.22;0.93;;;14.20;90.10;;;;;;7401521;19;19918;-73
2023/05/12 04:48:20;;;;;;;3.63;0.90;;;14.20;90.20;;;;;;7402285;19;20351;-72
2023/05/12 04:50:47;;;;;;;5.25;1.13;;;14.10;90.40;;;;;;7399583;19;20335;-71
2023/05/12 04:53:15;;;;;;;;;;;14.10;90.50;;;;;;7402236;19;20286;-73
2023/05/12 04:55:44;;;;;;;4.30;1.10;;;14.10;90.50;;;;;;7400848;19;19926;-71
2023/05/12 04:58:12;;;;;;;3.00;1.20;;;14.10;90.30;;;;;;7400772;19;19923;-71
2023/05/12 05:00:38;;;;;;;2.90;1.42;;;14.10;90.40;;;;;;7401413;19;19941;-73
2023/05/12 05:03:04;;;;;;;3.53;1.35;;;14.10;90.40;;;;;;7399695;19;20343;-71
2023/05/12 05:05:30;;;;;;;3.25;1.20;;;14.10;90.40;;;;;;7403395;19;19931;-72
2023/05/12 05:07:56;;;;;;;3.97;0.98;;;14.10;90.20;;;;;;7402145;19;19923;-71
2023/05/12 05:10:22;;;;;;;3.85;1.73;;;14.10;90.10;;;;;;7403042;19;19941;-71
2023/05/12 05:12:48;;;;;;;2.80;1.10;;;14.10;90.10;;;;;;7379542;19;19921;-71
2023/05/12 05:15:14;;;;;;;2.97;1.02;;;14.10;90.00;;;;;;7400509;19;19910;-72
2023/05/12 05:17:41;;;;;;;4.65;0.90;;;14.10;90.20;;;;;;7401108;19;20275;-72
2023/05/12 05:20:10;;;;;;;3.20;1.73;;;14.20;89.60;;;;;;7398671;19;20499;-73
2023/05/12 05:22:38;;;;;;;2.35;0.88;;;14.20;89.70;;;;;;7402903;19;19918;-72
2023/05/12 05:25:04;;;;;;;2.88;0.93;;;14.20;89.50;;;;;;7379223;19;20363;-72
2023/05/12 05:27:30;;;;;;;3.30;1.10;;;14.30;89.10;;;;;;7402884;19;19922;-72
2023/05/12 05:29:56;;;;;;;4.38;0.77;;;14.40;88.70;;;;;;7405315;19;20271;-72
2023/05/12 05:32:22;;;;;;;4.45;1.08;;;14.50;88.40;;;;;;7401186;19;19956;-72
2023/05/12 05:34:47;;;;;;;3.25;1.30;;;14.60;88.00;;;;;;7402173;19;19923;-72
2023/05/12 05:37:16;;;;;;;3.05;0.90;;;14.60;87.60;;;;;;7401866;19;19934;-72
2023/05/12 05:39:42;;;;;;;3.80;1.00;;;14.60;87.60;;;;;;7400661;19;20334;-72
2023/05/12 05:42:07;;;;;;;3.22;0.80;;;14.70;87.20;;;;;;7398566;19;19930;-72
2023/05/12 05:44:33;;;;;;;5.28;1.08;;;14.70;87.10;;;;;;7400631;19;19930;-71
2023/05/12 05:47:00;;;;;;;2.88;1.45;;;14.70;87.10;;;;;;7402451;19;19925;-72
2023/05/12 05:49:25;;;;;;;1.88;0.65;;;14.70;86.70;;;;;;7402346;19;20418;-71
2023/05/12 05:51:51;;;;;;;2.45;1.23;;;14.80;86.60;;;;;;7402623;19;19918;-72
2023/05/12 05:54:17;;;;;;;2.70;0.60;;;14.80;86.30;;;;;;7401538;19;20227;-72
2023/05/12 05:56:42;;;;;;;2.80;0.93;;;14.90;85.80;;;;;;7401041;19;19911;-72
2023/05/12 05:59:08;;;;;;;2.78;1.10;;;14.90;85.30;;;;;;7399775;19;19943;-72
2023/05/12 06:01:34;;;;;;;2.63;0.57;;;14.90;85.60;;;;;;7403137;19;20242;-74
2023/05/12 06:04:00;;;;;;;3.00;1.13;;;15.00;85.30;;;;;;7399979;19;19941;-72
2023/05/12 06:06:25;;;;;;;2.58;1.00;;;15.10;84.40;;;;;;7399169;19;19922;-72
2023/05/12 06:08:52;;;;;;;2.63;0.82;;;15.10;84.00;;;;;;7402248;19;19922;-71
2023/05/12 06:11:18;;;;;;;;;;;15.10;83.90;;;;;;7400898;19;19915;-71
2023/05/12 06:13:44;;;;;;;2.70;0.80;;;15.20;83.60;;;;;;7402590;19;19921;-72
2023/05/12 06:16:09;;;;;;;3.03;0.82;;;15.20;82.20;;;;;;7401453;19;19919;-72
2023/05/12 06:18:36;;;;;;;3.17;1.08;;;15.20;82.70;;;;;;7399855;19;20280;-72
2023/05/12 06:21:03;;;;;;;2.88;1.40;;;15.20;83.10;;;;;;7401298;19;19927;-73
2023/05/12 06:23:29;;;;;;;2.30;0.98;;;15.20;83.00;;;;;;7401385;19;19918;-73
2023/05/12 06:25:55;;;;;;;2.35;0.52;;;15.20;82.50;;;;;;7400968;19;20263;-73
2023/05/12 06:28:20;;;;;;;2.47;0.55;;;15.20;82.50;;;;;;7401481;19;20279;-72
2023/05/12 06:30:46;;;;;;;3.65;1.00;;;15.30;82.10;;;;;;7400096;19;19914;-72
2023/05/12 06:33:12;;;;;;;4.75;1.15;;;15.30;82.60;;;;;;7398613;19;19934;-72
2023/05/12 06:35:38;;;;;;;3.92;1.08;;;15.30;82.50;;;;;;7399711;19;20453;-73
2023/05/12 06:38:03;;;;;;;3.30;1.38;;;15.20;82.60;;;;;;7384144;19;19933;-73
2023/05/12 06:40:29;;;;;;;4.13;1.73;;;15.20;82.90;;;;;;7387217;19;19920;-72
2023/05/12 06:42:55;;;;;;;3.35;1.20;;;15.20;82.90;;;;;;7389988;19;19923;-73
2023/05/12 06:45:22;;;;;;;2.38;0.82;;;15.30;82.80;;;;;;7398257;19;19921;-72
2023/05/12 06:47:48;;;;;;;3.35;1.20;;;15.30;82.80;;;;;;7398354;19;19966;-73
2023/05/12 06:50:15;;;;;;;4.53;1.40;;;15.40;82.50;;;;;;7399744;19;19914;-72
2023/05/12 06:52:42;;;;;;;7.60;1.55;;;15.30;82.70;;;;;;7397366;19;19918;-73
2023/05/12 06:55:08;;;;;;;6.18;1.30;;;15.40;82.50;;;;;;7399824;19;19939;-73
2023/05/12 06:57:33;;;;;;;4.95;1.23;;;15.40;82.50;;;;;;7397658;19;19919;-73
2023/05/12 07:00:01;;;;;;;4.00;1.33;;;15.50;82.00;;;;;;7382130;19;19925;-73
2023/05/12 07:02:28;;;;;;;3.45;1.13;;;15.50;81.80;;;;;;7389263;19;19914;-73
2023/05/12 07:04:53;;;;;;;4.55;1.38;;;15.60;81.50;;;;;;7388109;19;20002;-73
2023/05/12 07:07:19;;;;;;;4.93;1.73;;;15.70;81.40;;;;;;7395264;19;19974;-73
2023/05/12 07:09:45;;;;;;;5.50;1.30;;;15.80;80.90;;;;;;7394642;19;19918;-72
2023/05/12 07:12:11;;;;;;;4.78;1.35;;;15.80;79.90;;;;;;7395583;19;19911;-73
2023/05/12 07:14:36;;;;;;;3.33;0.68;;;16.00;79.70;;;;;;7360899;19;19982;-74
2023/05/12 07:17:03;;;;;;;7.78;1.15;;;15.80;77.30;;;;;;7337499;19;19926;-76
2023/05/12 07:19:29;;;;;;;2.85;1.05;;;15.80;79.00;;;;;;7403047;19;20029;-74
2023/05/12 07:21:55;;;;;;;2.90;0.70;;;15.70;78.60;;;;;;7387426;19;20348;-73
2023/05/12 07:24:21;;;;;;;5.53;1.02;;;15.70;78.50;;;;;;7394681;19;20254;-74
2023/05/12 07:26:47;;;;;;;3.90;1.40;;;15.80;78.10;;;;;;7392755;19;19922;-74
2023/05/12 07:29:12;;;;;;;4.03;0.93;;;15.80;77.50;;;;;;7397801;19;19915;-73
2023/05/12 07:31:38;;;;;;;3.42;0.80;;;15.90;76.20;;;;;;7390668;19;19915;-73
2023/05/12 07:34:04;;;;;;;6.43;1.10;;;15.80;76.40;;;;;;7400800;19;19943;-73
2023/05/12 07:36:30;;;;;;;4.70;1.60;;;16.00;76.00;;;;;;7400690;19;20271;-74
2023/05/12 07:38:56;;;;;;;2.88;0.65;;;16.20;74.80;;;;;;7405084;19;19974;-72
2023/05/12 07:41:22;;;;;;;4.10;0.90;;;16.40;74.70;;;;;;7400620;19;19938;-73
2023/05/12 07:43:48;;;;;;;2.70;0.80;;;16.40;73.10;;;;;;7406068;19;20320;-73
2023/05/12 07:46:13;;;;;;;3.17;0.63;;;16.50;72.00;;;;;;7401126;19;19923;-73
2023/05/12 07:48:39;;;;;;;2.70;0.95;;;16.60;72.20;;;;;;7406468;19;19923;-73
2023/05/12 07:51:06;;;;;;;2.92;0.70;;;16.80;72.00;;;;;;7399012;19;19914;-72
2023/05/12 07:53:32;;;;;;;4.95;0.90;;;16.90;70.90;;;;;;7404806;19;19922;-73
2023/05/12 07:55:58;;;;;;;2.58;0.70;;;17.10;70.00;;;;;;7403255;19;20019;-74
2023/05/12 07:58:24;;;;;;;5.25;1.00;;;17.20;69.80;;;;;;7402372;19;20343;-73
2023/05/12 08:00:49;;;;;;;3.33;0.60;;;17.10;69.20;;;;;;7402927;19;19915;-73
2023/05/12 08:03:15;;;;;;;2.33;0.70;;;17.10;68.50;;;;;;7372724;19;19915;-73
2023/05/12 08:05:41;;;;;;;3.45;1.00;;;17.20;68.60;;;;;;7403479;19;19914;-73
2023/05/12 08:08:15;;;;;;;4.88;1.00;;;17.20;68.80;;;;;;7404674;19;19925;-73
2023/05/12 08:10:41;;;;;;;4.20;0.85;;;17.00;68.50;;;;;;7402557;19;19941;-72
2023/05/12 08:13:07;;;;;;;4.43;0.73;;;16.90;69.20;;;;;;7404987;19;19922;-72
2023/05/12 08:15:33;;;;;;;3.30;0.95;;;16.70;69.00;;;;;;7403370;19;19915;-72
2023/05/12 08:17:59;;;;;;;5.20;1.35;;;16.80;69.30;;;;;;7405478;19;20248;-73
2023/05/12 08:20:26;;;;;;;3.72;0.80;;;16.60;69.60;;;;;;7398380;19;19914;-73
2023/05/12 08:22:52;;;;;;;4.90;0.73;;;16.80;69.20;;;;;;7401247;19;19958;-73
2023/05/12 08:25:18;;;;;;;3.45;0.75;;;17.00;68.90;;;;;;7399464;19;19994;-73
2023/05/12 08:27:44;;;;;;;5.20;0.60;;;17.40;67.90;;;;;;7403079;19;19931;-73
2023/05/12 08:30:10;;;;;;;4.43;0.98;;;17.50;67.50;;;;;;7396649;19;20343;-73
2023/05/12 08:32:36;;;;;;;3.33;0.82;;;17.30;67.40;;;;;;7393902;19;19918;-72
2023/05/12 08:35:02;;;;;;;2.42;0.60;;;17.50;67.00;;;;;;7398911;19;20355;-73
2023/05/12 08:37:28;;;;;;;2.55;0.75;;;17.60;67.70;;;;;;7370046;19;19915;-73
2023/05/12 08:39:58;;;;;;;3.85;0.80;;;17.80;66.90;;;;;;7392718;19;19947;-72
2023/05/12 08:42:36;;;;;;;3.85;0.80;;;18.90;65.80;;;;;;7387062;19;19939;-73
2023/05/12 08:45:03;;;;;;;2.63;0.70;;;21.00;60.40;;;;;;7389983;19;19938;-74
2023/05/12 08:47:31;;;;;;;5.13;0.80;;;22.30;56.50;;;;;;7385461;19;25315;-73
2023/05/12 08:50:04;;;;;;;4.53;0.80;;;20.60;58.10;;;;;;7396223;19;19918;-73
2023/05/12 08:52:34;;;;;;;3.30;0.95;;;19.50;59.90;;;;;;7395009;19;19914;-73
2023/05/12 08:55:00;;;;;;;3.83;0.98;;;19.60;60.80;;;;;;7398452;19;20376;-74
2023/05/12 08:57:26;;;;;;;7.45;1.05;;;19.30;61.30;;;;;;7396720;19;20410;-73
2023/05/12 08:59:54;;;;;;;8.80;1.00;;;19.20;62.20;;;;;;7394399;19;20252;-73
2023/05/12 09:02:21;;;;;;;4.30;0.80;;;19.00;62.20;;;;;;7401210;19;19914;-74
2023/05/12 09:04:48;;;;;;;3.53;1.05;;;18.90;62.10;;;;;;7379132;19;19922;-73
2023/05/12 09:07:15;;;;;;;4.75;0.80;;;19.10;62.40;;;;;;7400308;19;19925;-74
2023/05/12 09:09:44;;;;;;;5.65;1.20;;;20.30;61.50;;;;;;7377644;19;20248;-72
2023/05/12 09:12:15;;;;;;;3.05;0.90;;;22.30;57.50;;;;;;7400347;19;19925;-74
2023/05/12 09:14:43;;;;;;;3.58;0.70;;;24.20;53.70;;;;;;7398112;19;19915;-78
2023/05/12 09:17:11;;;;;;;3.58;1.00;;;22.10;53.80;;;;;;7403772;19;19915;-73
2023/05/12 09:19:36;;;;;;;4.05;1.13;;;21.10;56.40;;;;;;7400618;19;19915;-73
2023/05/12 09:22:02;;;;;;;6.05;0.95;;;20.60;57.70;;;;;;7398880;19;19942;-73
2023/05/12 09:24:39;;;;;;;5.38;1.15;;;20.10;59.10;;;;;;7400268;19;19937;-72
2023/05/12 09:27:05;;;;;;;4.32;0.85;;;19.20;59.60;;;;;;7400984;19;19931;-73
2023/05/12 09:29:32;;;;;;;;;;;18.70;61.40;;;;;;7400161;19;19922;-74
2023/05/12 09:32:00;;;;;;;3.33;0.80;;;18.90;62.10;;;;;;7402284;19;19915;-73
2023/05/12 09:34:37;;;;;;;6.72;1.02;;;18.50;61.60;;;;;;7396901;19;19918;-72
2023/05/12 09:37:05;;;;;;;4.63;0.88;;;18.60;62.50;;;;;;7388704;19;19926;-74
2023/05/12 09:39:35;;;;;;;6.40;0.98;;;18.80;62.00;;;;;;7384891;19;19986;-73
2023/05/12 09:42:11;;;;;;;6.05;1.00;;;18.90;61.20;;;;;;7390409;19;19915;-73
2023/05/12 09:44:37;;;;;;;;;;;19.00;61.70;;;;;;7395388;19;19915;-74
2023/05/12 09:47:07;;;;;;;5.63;1.30;;;18.90;64.30;;;;;;7390269;19;19943;-73
2023/05/12 09:49:33;;;;;;;5.85;1.42;;;18.90;65.00;;;;;;7394654;19;19918;-73
2023/05/12 09:51:58;;;;;;;5.35;1.52;;;18.90;65.20;;;;;;7400874;19;19963;-73
2023/05/12 09:54:32;;;;;;;4.28;1.52;;;19.00;65.10;;;;;;7397264;19;19926;-74
2023/05/12 09:57:00;;;;;;;6.32;1.33;;;19.10;65.00;;;;;;7396830;19;19935;-73
2023/05/12 09:59:35;;;;;;;7.00;1.40;;;19.10;65.10;;;;;;7392988;19;19914;-72
2023/05/12 10:02:03;;;;;;;6.18;1.67;;;18.90;65.70;;;;;;7392630;19;20339;-72
2023/05/12 10:04:38;;;;;;;4.30;1.67;;;19.10;66.00;;;;;;7395609;19;19918;-73
2023/05/12 10:07:10;;;;;;;6.63;1.90;;;21.10;61.80;;;;;;7394333;19;19918;-73
2023/05/12 10:09:40;;;;;;;4.97;1.30;;;21.60;59.70;;;;;;7397002;19;19918;-73
2023/05/12 10:12:07;;;;;;;6.65;1.42;;;20.30;62.00;;;;;;7389367;19;19926;-72
2023/05/12 10:14:34;;;;;;;5.32;1.40;;;19.70;64.40;;;;;;7396196;19;19994;-72
2023/05/12 10:17:01;;;;;;;5.28;1.40;;;19.20;66.00;;;;;;7394093;19;19947;-73
2023/05/12 10:19:31;;;;;;;4.20;1.10;;;18.40;67.60;;;;;;7354825;19;19922;-73
2023/05/12 10:21:57;;;;;;;5.93;1.42;;;18.00;69.40;;;;;;7390742;19;20458;-72
2023/05/12 10:24:27;;;;;;;7.20;1.30;;;17.80;70.40;;;;;;7397360;19;20750;-74
2023/05/12 10:26:58;;;;;;;4.88;0.95;;;17.70;69.50;;;;;;7400841;19;20347;-72
2023/05/12 10:29:28;;;;;;;5.22;1.05;;;17.50;70.60;;;;;;7397696;19;20370;-72
2023/05/12 10:31:56;;;;;;;5.85;1.40;;;16.90;72.30;;;;;;7400524;19;19943;-72
2023/05/12 10:34:22;;;;;;;4.60;1.17;;;16.90;72.80;;;;;;7396130;19;19919;-73
2023/05/12 10:36:50;;;;;;;3.70;0.70;;;17.30;72.20;;;;;;7399246;19;19925;-72
2023/05/12 10:39:16;;;;;;;8.13;1.60;;;17.60;71.60;;;;;;7399016;19;19918;-73
2023/05/12 10:41:41;;;;;;;6.32;1.30;;;18.00;71.50;;;;;;7393155;19;19918;-73
2023/05/12 10:44:09;;;;;;;5.53;1.15;;;18.00;70.80;;;;;;7367603;19;19910;-73
2023/05/12 10:46:36;;;;;;;6.32;1.20;;;18.50;69.60;;;;;;7392784;19;19918;-72
2023/05/12 10:49:11;;;;;;;4.65;1.38;;;18.60;68.80;;;;;;7393494;19;20675;-72
2023/05/12 10:51:37;;;;;;;4.72;1.25;;;17.70;73.80;;;;;;7395675;19;19918;-73
2023/05/12 10:54:07;;;;;;;5.50;1.65;;;17.20;74.90;;;;;;7386559;19;19953;-74
2023/05/12 10:56:38;;;;;;;4.95;1.10;;;17.20;78.20;;;;;;7391370;19;19914;-73
2023/05/12 10:59:11;;;;;;;10.70;1.52;;;17.30;76.20;;;;;;7357227;19;20374;-72
2023/05/12 11:01:37;;;;;;;3.75;0.85;;;17.60;76.10;;;;;;7390200;19;19919;-73
2023/05/12 11:04:14;;;;;;;5.03;1.10;;;17.70;74.70;;;;;;7399418;19;20888;-73
2023/05/12 11:06:42;;;;;;;3.50;0.88;;;17.80;74.20;;;;;;7394003;19;19915;-73
2023/05/12 11:09:09;;;;;;;6.68;1.00;;;17.90;72.80;;;;;;7394684;19;19929;-74
2023/05/12 11:11:36;;;;;;;6.07;1.13;;;17.60;74.70;;;;;;7399111;19;19998;-74
2023/05/12 11:14:02;;;;;;;5.70;1.30;;;17.50;73.20;;;;;;7386236;19;20255;-72
2023/05/12 11:16:27;;;;;;;2.97;1.10;;;17.60;73.40;;;;;;7390308;19;19923;-73
2023/05/12 11:19:05;;;;;;;7.43;1.33;;;17.90;72.70;;;;;;7398349;19;20346;-73
2023/05/12 11:21:32;;;;;;;4.47;0.98;;;18.70;72.50;;;;;;7393244;19;19954;-73
2023/05/12 11:23:59;;;;;;;8.70;1.30;;;18.70;70.50;;;;;;7378992;19;19942;-75
2023/05/12 11:26:26;;;;;;;4.40;1.00;;;19.70;68.00;;;;;;7396576;19;19933;-75
2023/05/12 11:28:52;;;;;;;6.45;1.23;;;18.60;68.90;;;;;;7395175;19;19942;-73
2023/05/12 11:31:19;;;;;;;5.50;1.27;;;18.60;69.90;;;;;;7382434;19;19933;-75
2023/05/12 11:33:46;;;;;;;4.80;1.40;;;18.40;70.80;;;;;;7395781;19;19922;-72
2023/05/12 11:36:12;;;;;;;5.05;1.13;;;19.10;68.40;;;;;;7373735;19;19974;-73
2023/05/12 11:38:38;;;;;;;3.05;1.42;;;19.20;69.30;;;;;;7389500;19;19926;-73
2023/05/12 11:41:03;;;;;;;3.80;1.20;;;18.90;69.80;;;;;;7394193;19;19915;-72
2023/05/12 11:43:29;;;;;;;7.63;1.33;;;19.40;68.50;;;;;;7387832;19;19929;-73
2023/05/12 11:45:55;;;;;;;5.65;1.20;;;19.20;68.80;;;;;;7386714;19;19919;-74
2023/05/12 11:48:30;;;;;;;4.70;1.05;;;18.70;70.60;;;;;;7383047;19;20393;-73
2023/05/12 11:50:56;;;;;;;4.38;1.10;;;18.30;71.00;;;;;;7396197;19;19927;-75
2023/05/12 11:53:22;;;;;;;6.28;1.30;;;18.00;71.80;;;;;;7388153;19;19954;-73
2023/05/12 11:55:54;;;;;;;4.47;1.20;;;17.30;73.30;;;;;;7384420;19;19918;-73
2023/05/12 11:58:20;;;;;;;4.68;1.02;;;17.00;73.30;;;;;;7384674;19;19925;-73
2023/05/12 12:00:47;;;;;;;8.23;1.45;;;17.10;74.50;;;;;;7390193;19;19914;-73
2023/05/12 12:03:14;;;;;;;5.10;1.00;;;17.30;74.40;;;;;;7387919;19;19914;-73
2023/05/12 12:05:41;;;;;;;;;;;17.10;74.30;;;;;;7406118;19;20628;-72
2023/05/12 12:08:14;;;;;;;4.38;1.23;;;17.00;75.30;;;;;;7400564;19;19911;-73
2023/05/12 12:10:46;;;;;;;3.55;1.02;;;16.90;77.10;;;;;;7403785;19;19918;-73
2023/05/12 12:13:24;;;;;;;4.55;1.38;;;16.70;78.60;;;;;;7399829;19;19940;-73
2023/05/12 12:15:50;;;;;;;4.40;1.20;;;16.70;80.10;;;;;;7403993;19;20051;-73
2023/05/12 12:18:16;;;;;;;7.43;1.10;;;16.70;80.60;;;;;;7401451;19;19923;-74
2023/05/12 12:20:43;;;;;;;5.40;0.95;;;16.60;81.10;;;;;;7403997;19;19946;-73
2023/05/12 12:23:08;;;;;;;3.80;0.95;;;16.40;82.10;;;;;;7400876;19;19922;-73
2023/05/12 12:25:34;;;;;;;5.72;1.00;;;16.50;82.30;;;;;;7403616;19;19910;-74
2023/05/12 12:28:00;;;;;;;4.78;1.30;;;16.50;82.50;;;;;;7401846;19;20534;-74
2023/05/12 12:30:26;;;;;;;4.35;1.00;;;16.40;83.20;;;;;;7402802;19;19947;-73
2023/05/12 12:32:52;;;;;;;5.72;1.20;;;16.40;84.40;;;;;;7402648;19;19923;-73
2023/05/12 12:35:18;;;;;;;3.88;1.13;;;16.40;84.50;;;;;;7401580;19;19922;-74
2023/05/12 12:37:50;;;;;;;5.00;1.40;;;15.90;86.80;;;;;;7404289;19;19925;-73
2023/05/12 12:40:19;;;;;;;4.60;1.00;;;15.40;90.20;;;;;;7401273;19;20432;-73
2023/05/12 12:42:45;;;;;;;4.10;1.42;;;15.10;92.00;;;;;;7401195;19;20599;-73
2023/05/12 12:45:12;;;;;;;4.20;1.40;;;14.90;92.80;;;;;;7379287;19;19986;-73